sensor_id;sensor_type;location;lat;lon;timestamp;pressure;altitude;pressure_sealevel;temperature;humidity
7768;BME280;3928;42.626;23.382;2023-12-20T00:01:01;94489.94;;;5.35;73.35
7768;BME280;3928;42.626;23.382;2023-12-20T00:03:28;94495.97;;;5.49;72.79
7768;BME280;3928;42.626;23.382;2023-12-20T00:05:55;94493.28;;;5.31;72.10
7768;BME280;3928;42.626;23.382;2023-12-20T00:08:22;94495.03;;;5.38;71.68
7768;BME280;3928;42.626;23.382;2023-12-20T00:10:49;94481.50;;;5.42;72.25
7768;BME280;3928;42.626;23.382;2023-12-20T00:13:16;94499.28;;;5.40;71.25
7768;BME280;3928;42.626;23.382;2023-12-20T00:15:44;94495.06;;;5.44;71.38
7768;BME280;3928;42.626;23.382;2023-12-20T00:18:11;94479.00;;;5.52;71.74
7768;BME280;3928;42.626;23.382;2023-12-20T00:20:38;94467.97;;;5.52;71.52
7768;BME280;3928;42.626;23.382;2023-12-20T00:23:05;94458.63;;;5.48;71.18
7768;BME280;3928;42.626;23.382;2023-12-20T00:25:33;94478.22;;;5.63;70.24
7768;BME280;3928;42.626;23.382;2023-12-20T00:28:00;94479.06;;;5.60;70.91
7768;BME280;3928;42.626;23.382;2023-12-20T00:30:27;94475.66;;;5.58;71.93
7768;BME280;3928;42.626;23.382;2023-12-20T00:32:56;94467.91;;;5.44;71.99
7768;BME280;3928;42.626;23.382;2023-12-20T00:35:23;94468.75;;;5.36;72.01
7768;BME280;3928;42.626;23.382;2023-12-20T00:37:50;94454.25;;;5.24;72.14
7768;BME280;3928;42.626;23.382;2023-12-20T00:40:17;94457.56;;;5.09;73.07
7768;BME280;3928;42.626;23.382;2023-12-20T00:42:44;94443.88;;;4.95;72.55
7768;BME280;3928;42.626;23.382;2023-12-20T00:45:12;94431.22;;;4.99;72.72
7768;BME280;3928;42.626;23.382;2023-12-20T00:47:40;94437.25;;;5.15;72.81
7768;BME280;3928;42.626;23.382;2023-12-20T00:50:08;94432.19;;;5.21;72.63
7768;BME280;3928;42.626;23.382;2023-12-20T00:52:36;94432.22;;;5.32;72.02
7768;BME280;3928;42.626;23.382;2023-12-20T00:55:03;94438.06;;;5.10;72.39
7768;BME280;3928;42.626;23.382;2023-12-20T00:57:30;94441.41;;;5.06;72.50
7768;BME280;3928;42.626;23.382;2023-12-20T00:59:57;94439.78;;;5.15;71.94
7768;BME280;3928;42.626;23.382;2023-12-20T01:02:24;94432.16;;;5.18;71.01
7768;BME280;3928;42.626;23.382;2023-12-20T01:04:51;94430.47;;;5.17;71.53
7768;BME280;3928;42.626;23.382;2023-12-20T01:07:20;94427.06;;;5.12;71.50
7768;BME280;3928;42.626;23.382;2023-12-20T01:09:47;94415.97;;;5.06;71.86
7768;BME280;3928;42.626;23.382;2023-12-20T01:12:13;94425.28;;;4.99;72.39
7768;BME280;3928;42.626;23.382;2023-12-20T01:14:40;94420.97;;;4.87;73.93
7768;BME280;3928;42.626;23.382;2023-12-20T01:17:07;94414.97;;;4.84;74.71
7768;BME280;3928;42.626;23.382;2023-12-20T01:19:35;94414.97;;;4.78;75.35
7768;BME280;3928;42.626;23.382;2023-12-20T01:22:02;94408.19;;;4.80;75.61
7768;BME280;3928;42.626;23.382;2023-12-20T01:24:30;94403.09;;;4.80;75.66
7768;BME280;3928;42.626;23.382;2023-12-20T01:26:57;94402.25;;;4.79;75.96
7768;BME280;3928;42.626;23.382;2023-12-20T01:29:24;94398.81;;;4.71;76.02
7768;BME280;3928;42.626;23.382;2023-12-20T01:31:51;94403.81;;;4.60;77.22
7768;BME280;3928;42.626;23.382;2023-12-20T01:34:18;94394.47;;;4.59;77.36
7768;BME280;3928;42.626;23.382;2023-12-20T01:36:45;94386.84;;;4.58;77.49
7768;BME280;3928;42.626;23.382;2023-12-20T01:39:12;94385.22;;;4.69;77.75
7768;BME280;3928;42.626;23.382;2023-12-20T01:41:40;94381.81;;;4.62;77.25
7768;BME280;3928;42.626;23.382;2023-12-20T01:44:07;94378.19;;;4.33;78.09
7768;BME280;3928;42.626;23.382;2023-12-20T01:46:34;94372.22;;;4.28;78.50
7768;BME280;3928;42.626;23.382;2023-12-20T01:49:02;94370.66;;;4.45;78.58
7768;BME280;3928;42.626;23.382;2023-12-20T01:51:29;94363.13;;;4.56;78.58
7768;BME280;3928;42.626;23.382;2023-12-20T01:53:57;94366.41;;;4.39;78.00
7768;BME280;3928;42.626;23.382;2023-12-20T01:56:26;94357.13;;;4.46;78.18
7768;BME280;3928;42.626;23.382;2023-12-20T01:58:56;94342.31;;;3.96;79.79
7768;BME280;3928;42.626;23.382;2023-12-20T02:01:24;94357.47;;;3.89;81.01
7768;BME280;3928;42.626;23.382;2023-12-20T02:03:54;94354.94;;;3.87;80.63
7768;BME280;3928;42.626;23.382;2023-12-20T02:06:22;94349.81;;;3.84;80.65
7768;BME280;3928;42.626;23.382;2023-12-20T02:08:50;94343.97;;;3.91;80.86
7768;BME280;3928;42.626;23.382;2023-12-20T02:11:17;94344.03;;;4.00;79.53
7768;BME280;3928;42.626;23.382;2023-12-20T02:13:44;94347.50;;;4.10;79.76
7768;BME280;3928;42.626;23.382;2023-12-20T02:16:12;94339.97;;;4.18;78.55
7768;BME280;3928;42.626;23.382;2023-12-20T02:18:39;94341.75;;;4.28;79.00
7768;BME280;3928;42.626;23.382;2023-12-20T02:21:06;94339.31;;;4.43;79.18
7768;BME280;3928;42.626;23.382;2023-12-20T02:23:34;94324.94;;;4.48;77.97
7768;BME280;3928;42.626;23.382;2023-12-20T02:26:02;94328.44;;;4.65;77.55
7768;BME280;3928;42.626;23.382;2023-12-20T02:28:29;94331.88;;;4.72;75.98
7768;BME280;3928;42.626;23.382;2023-12-20T02:30:57;94329.38;;;4.83;75.45
7768;BME280;3928;42.626;23.382;2023-12-20T02:33:24;94331.94;;;4.83;73.87
7768;BME280;3928;42.626;23.382;2023-12-20T02:35:51;94320.84;;;4.70;73.45
7768;BME280;3928;42.626;23.382;2023-12-20T02:38:19;94310.72;;;4.78;73.34
7768;BME280;3928;42.626;23.382;2023-12-20T02:40:47;94312.50;;;4.91;74.41
7768;BME280;3928;42.626;23.382;2023-12-20T02:43:14;94309.16;;;4.99;74.33
7768;BME280;3928;42.626;23.382;2023-12-20T02:45:41;94318.53;;;5.10;74.35
7768;BME280;3928;42.626;23.382;2023-12-20T02:48:08;94307.50;;;5.14;73.55
7768;BME280;3928;42.626;23.382;2023-12-20T02:50:35;94311.78;;;5.21;73.66
7768;BME280;3928;42.626;23.382;2023-12-20T02:53:02;94295.63;;;5.17;72.79
7768;BME280;3928;42.626;23.382;2023-12-20T02:55:29;94302.47;;;5.27;72.08
7768;BME280;3928;42.626;23.382;2023-12-20T02:57:57;94299.91;;;5.29;72.07
7768;BME280;3928;42.626;23.382;2023-12-20T03:00:24;94299.88;;;5.18;71.09
7768;BME280;3928;42.626;23.382;2023-12-20T03:02:51;94308.41;;;5.23;71.30
7768;BME280;3928;42.626;23.382;2023-12-20T03:05:17;94302.47;;;5.24;71.74
7768;BME280;3928;42.626;23.382;2023-12-20T03:07:44;94294.78;;;5.09;72.52
7768;BME280;3928;42.626;23.382;2023-12-20T03:10:11;94309.16;;;5.01;71.79
7768;BME280;3928;42.626;23.382;2023-12-20T03:12:38;94306.56;;;4.92;72.08
7768;BME280;3928;42.626;23.382;2023-12-20T03:15:08;94311.63;;;4.89;71.58
7768;BME280;3928;42.626;23.382;2023-12-20T03:17:35;94298.91;;;4.86;72.24
7768;BME280;3928;42.626;23.382;2023-12-20T03:20:03;94309.94;;;4.86;71.67
7768;BME280;3928;42.626;23.382;2023-12-20T03:22:30;94298.00;;;4.76;72.44
7768;BME280;3928;42.626;23.382;2023-12-20T03:24:56;94303.13;;;4.84;72.84
7768;BME280;3928;42.626;23.382;2023-12-20T03:27:23;94302.25;;;4.79;72.21
7768;BME280;3928;42.626;23.382;2023-12-20T03:29:50;94272.59;;;4.81;72.80
7768;BME280;3928;42.626;23.382;2023-12-20T03:32:19;94291.31;;;4.92;72.31
7768;BME280;3928;42.626;23.382;2023-12-20T03:34:45;94299.81;;;5.00;72.01
7768;BME280;3928;42.626;23.382;2023-12-20T03:37:13;94291.34;;;4.98;71.93
7768;BME280;3928;42.626;23.382;2023-12-20T03:39:40;94280.22;;;4.79;72.25
7768;BME280;3928;42.626;23.382;2023-12-20T03:42:07;94286.16;;;4.83;72.64
7768;BME280;3928;42.626;23.382;2023-12-20T03:44:34;94279.44;;;4.89;72.81
7768;BME280;3928;42.626;23.382;2023-12-20T03:47:01;94281.16;;;4.98;72.80
7768;BME280;3928;42.626;23.382;2023-12-20T03:49:30;94294.69;;;4.97;71.96
7768;BME280;3928;42.626;23.382;2023-12-20T03:51:57;94285.38;;;4.90;70.82
7768;BME280;3928;42.626;23.382;2023-12-20T03:54:24;94269.22;;;4.79;71.86
7768;BME280;3928;42.626;23.382;2023-12-20T03:56:51;94282.75;;;4.78;72.08
7768;BME280;3928;42.626;23.382;2023-12-20T03:59:18;94277.69;;;4.78;72.29
7768;BME280;3928;42.626;23.382;2023-12-20T04:01:44;94261.56;;;4.76;71.24
7768;BME280;3928;42.626;23.382;2023-12-20T04:04:12;94265.03;;;4.88;71.20
7768;BME280;3928;42.626;23.382;2023-12-20T04:06:41;94270.91;;;4.80;72.01
7768;BME280;3928;42.626;23.382;2023-12-20T04:09:08;94265.72;;;4.60;70.68
7768;BME280;3928;42.626;23.382;2023-12-20T04:11:36;94267.47;;;4.65;70.45
7768;BME280;3928;42.626;23.382;2023-12-20T04:14:03;94258.13;;;4.66;70.46
7768;BME280;3928;42.626;23.382;2023-12-20T04:16:31;94260.72;;;4.74;71.17
7768;BME280;3928;42.626;23.382;2023-12-20T04:18:58;94243.78;;;4.77;70.59
7768;BME280;3928;42.626;23.382;2023-12-20T04:21:25;94259.03;;;4.79;71.73
7768;BME280;3928;42.626;23.382;2023-12-20T04:23:53;94244.59;;;4.68;71.89
7768;BME280;3928;42.626;23.382;2023-12-20T04:26:20;94264.13;;;4.82;71.15
7768;BME280;3928;42.626;23.382;2023-12-20T04:28:47;94253.97;;;4.82;71.40
7768;BME280;3928;42.626;23.382;2023-12-20T04:31:14;94243.78;;;4.83;70.87
7768;BME280;3928;42.626;23.382;2023-12-20T04:33:40;94247.19;;;4.78;70.85
7768;BME280;3928;42.626;23.382;2023-12-20T04:36:08;94233.50;;;4.54;71.32
7768;BME280;3928;42.626;23.382;2023-12-20T04:38:35;94235.97;;;4.40;72.32
7768;BME280;3928;42.626;23.382;2023-12-20T04:41:04;94232.59;;;4.46;71.34
7768;BME280;3928;42.626;23.382;2023-12-20T04:43:31;94230.00;;;4.34;71.29
7768;BME280;3928;42.626;23.382;2023-12-20T04:45:57;94208.72;;;4.14;72.35
7768;BME280;3928;42.626;23.382;2023-12-20T04:48:24;94221.47;;;4.23;72.91
7768;BME280;3928;42.626;23.382;2023-12-20T04:50:52;94205.38;;;4.22;71.81
7768;BME280;3928;42.626;23.382;2023-12-20T04:53:20;94192.59;;;4.04;72.48
7768;BME280;3928;42.626;23.382;2023-12-20T04:55:46;94223.16;;;4.21;74.23
7768;BME280;3928;42.626;23.382;2023-12-20T04:58:15;94219.63;;;3.97;74.00
7768;BME280;3928;42.626;23.382;2023-12-20T05:00:42;94220.47;;;4.01;73.78
7768;BME280;3928;42.626;23.382;2023-12-20T05:03:09;94211.97;;;3.91;74.67
7768;BME280;3928;42.626;23.382;2023-12-20T05:05:36;94220.44;;;3.93;74.68
7768;BME280;3928;42.626;23.382;2023-12-20T05:08:03;94219.59;;;3.94;75.61
7768;BME280;3928;42.626;23.382;2023-12-20T05:10:30;94216.25;;;4.01;74.95
7768;BME280;3928;42.626;23.382;2023-12-20T05:12:57;94201.00;;;3.95;75.45
7768;BME280;3928;42.626;23.382;2023-12-20T05:15:25;94218.91;;;4.15;75.00
7768;BME280;3928;42.626;23.382;2023-12-20T05:17:53;94213.84;;;4.24;74.04
7768;BME280;3928;42.626;23.382;2023-12-20T05:20:19;94194.38;;;4.23;73.51
7768;BME280;3928;42.626;23.382;2023-12-20T05:22:46;94213.97;;;4.39;72.74
7768;BME280;3928;42.626;23.382;2023-12-20T05:25:13;94195.34;;;4.40;72.45
7768;BME280;3928;42.626;23.382;2023-12-20T05:27:40;94195.34;;;4.48;71.21
7768;BME280;3928;42.626;23.382;2023-12-20T05:30:08;94193.66;;;4.47;71.09
7768;BME280;3928;42.626;23.382;2023-12-20T05:32:36;94191.97;;;4.49;71.37
7768;BME280;3928;42.626;23.382;2023-12-20T05:35:03;94200.44;;;4.47;70.38
7768;BME280;3928;42.626;23.382;2023-12-20T05:37:30;94191.94;;;4.43;70.85
7768;BME280;3928;42.626;23.382;2023-12-20T05:39:58;94197.88;;;4.42;70.36
7768;BME280;3928;42.626;23.382;2023-12-20T05:42:25;94185.16;;;4.40;71.02
7768;BME280;3928;42.626;23.382;2023-12-20T05:44:52;94194.50;;;4.45;71.19
7768;BME280;3928;42.626;23.382;2023-12-20T05:47:18;94186.03;;;4.47;70.78
7768;BME280;3928;42.626;23.382;2023-12-20T05:49:47;94187.72;;;4.42;69.44
7768;BME280;3928;42.626;23.382;2023-12-20T05:52:14;94199.56;;;4.40;69.72
7768;BME280;3928;42.626;23.382;2023-12-20T05:54:41;94183.47;;;4.41;70.74
7768;BME280;3928;42.626;23.382;2023-12-20T05:57:08;94174.16;;;4.40;69.54
7768;BME280;3928;42.626;23.382;2023-12-20T05:59:35;94181.78;;;4.40;70.39
7768;BME280;3928;42.626;23.382;2023-12-20T06:02:03;94163.09;;;4.33;69.91
7768;BME280;3928;42.626;23.382;2023-12-20T06:04:30;94177.56;;;4.44;70.50
7768;BME280;3928;42.626;23.382;2023-12-20T06:06:59;94150.41;;;4.32;69.87
7768;BME280;3928;42.626;23.382;2023-12-20T06:09:27;94139.38;;;4.27;69.91
7768;BME280;3928;42.626;23.382;2023-12-20T06:11:54;94174.13;;;4.37;69.77
7768;BME280;3928;42.626;23.382;2023-12-20T06:14:21;94170.72;;;4.32;69.55
7768;BME280;3928;42.626;23.382;2023-12-20T06:16:48;94179.19;;;4.28;70.32
7768;BME280;3928;42.626;23.382;2023-12-20T06:19:15;94174.91;;;4.24;69.97
7768;BME280;3928;42.626;23.382;2023-12-20T06:21:42;94185.06;;;4.19;70.45
7768;BME280;3928;42.626;23.382;2023-12-20T06:24:10;94189.28;;;4.16;70.68
7768;BME280;3928;42.626;23.382;2023-12-20T06:26:37;94182.66;;;4.47;86.88
7768;BME280;3928;42.626;23.382;2023-12-20T06:29:04;94177.78;;;5.12;87.81
7768;BME280;3928;42.626;23.382;2023-12-20T06:31:31;94194.75;;;5.22;70.64
7768;BME280;3928;42.626;23.382;2023-12-20T06:33:58;94185.44;;;5.23;68.48
7768;BME280;3928;42.626;23.382;2023-12-20T06:36:25;94167.59;;;5.15;67.62
7768;BME280;3928;42.626;23.382;2023-12-20T06:38:52;94178.59;;;5.08;68.14
7768;BME280;3928;42.626;23.382;2023-12-20T06:41:22;94174.38;;;4.99;67.94
7768;BME280;3928;42.626;23.382;2023-12-20T06:43:50;94175.19;;;4.94;68.31
7768;BME280;3928;42.626;23.382;2023-12-20T06:46:16;94174.34;;;4.92;68.40
7768;BME280;3928;42.626;23.382;2023-12-20T06:48:43;94167.53;;;4.85;68.54
7768;BME280;3928;42.626;23.382;2023-12-20T06:51:14;94149.72;;;4.77;69.50
7768;BME280;3928;42.626;23.382;2023-12-20T06:53:41;94129.38;;;4.66;68.63
7768;BME280;3928;42.626;23.382;2023-12-20T06:56:09;94159.09;;;4.86;69.21
7768;BME280;3928;42.626;23.382;2023-12-20T06:58:38;94162.44;;;4.82;69.75
7768;BME280;3928;42.626;23.382;2023-12-20T07:01:05;94159.06;;;4.78;69.86
7768;BME280;3928;42.626;23.382;2023-12-20T07:03:32;94156.50;;;4.84;70.96
7768;BME280;3928;42.626;23.382;2023-12-20T07:05:59;94154.00;;;4.87;72.67
7768;BME280;3928;42.626;23.382;2023-12-20T07:08:26;94147.22;;;4.92;74.47
7768;BME280;3928;42.626;23.382;2023-12-20T07:10:53;94137.91;;;5.08;77.14
7768;BME280;3928;42.626;23.382;2023-12-20T07:13:20;94139.63;;;5.20;74.90
7768;BME280;3928;42.626;23.382;2023-12-20T07:15:49;94143.03;;;5.34;71.38
7768;BME280;3928;42.626;23.382;2023-12-20T07:18:16;94146.41;;;5.44;70.68
7768;BME280;3928;42.626;23.382;2023-12-20T07:20:43;94140.47;;;5.42;68.15
7768;BME280;3928;42.626;23.382;2023-12-20T07:23:10;94138.81;;;5.47;69.98
7768;BME280;3928;42.626;23.382;2023-12-20T07:25:36;94132.00;;;5.17;69.64
7768;BME280;3928;42.626;23.382;2023-12-20T07:28:04;94113.31;;;5.04;69.94
7768;BME280;3928;42.626;23.382;2023-12-20T07:30:31;94132.00;;;5.32;70.26
7768;BME280;3928;42.626;23.382;2023-12-20T07:32:59;94125.22;;;5.39;69.84
7768;BME280;3928;42.626;23.382;2023-12-20T07:35:28;94122.69;;;5.42;69.48
7768;BME280;3928;42.626;23.382;2023-12-20T07:37:54;94136.25;;;5.50;68.75
7768;BME280;3928;42.626;23.382;2023-12-20T07:40:21;94132.84;;;5.43;69.23
7768;BME280;3928;42.626;23.382;2023-12-20T07:42:49;94139.66;;;5.38;67.84
7768;BME280;3928;42.626;23.382;2023-12-20T07:45:16;94138.78;;;5.41;69.47
7768;BME280;3928;42.626;23.382;2023-12-20T07:47:43;94139.63;;;5.63;69.62
7768;BME280;3928;42.626;23.382;2023-12-20T07:50:11;94131.16;;;5.65;68.62
7768;BME280;3928;42.626;23.382;2023-12-20T07:52:38;94127.75;;;5.63;67.36
7768;BME280;3928;42.626;23.382;2023-12-20T07:55:06;94127.75;;;5.62;68.60
7768;BME280;3928;42.626;23.382;2023-12-20T07:57:33;94135.38;;;5.66;68.45
7768;BME280;3928;42.626;23.382;2023-12-20T08:00:00;94138.81;;;5.70;67.98
7768;BME280;3928;42.626;23.382;2023-12-20T08:02:29;94124.38;;;5.64;67.45
7768;BME280;3928;42.626;23.382;2023-12-20T08:04:56;94120.13;;;5.69;68.88
7768;BME280;3928;42.626;23.382;2023-12-20T08:07:24;94117.56;;;5.65;69.13
7768;BME280;3928;42.626;23.382;2023-12-20T08:09:51;94126.91;;;5.70;69.22
7768;BME280;3928;42.626;23.382;2023-12-20T08:12:20;94104.84;;;5.75;69.23
7768;BME280;3928;42.626;23.382;2023-12-20T08:14:47;94109.91;;;5.84;69.65
7768;BME280;3928;42.626;23.382;2023-12-20T08:17:14;94103.13;;;5.91;69.82
7768;BME280;3928;42.626;23.382;2023-12-20T08:19:41;94102.28;;;5.97;69.52
7768;BME280;3928;42.626;23.382;2023-12-20T08:22:08;94106.44;;;6.28;82.43
7768;BME280;3928;42.626;23.382;2023-12-20T08:24:37;94102.81;;;6.77;72.42
7768;BME280;3928;42.626;23.382;2023-12-20T08:27:04;94108.72;;;6.88;67.31
7768;BME280;3928;42.626;23.382;2023-12-20T08:29:31;94093.38;;;6.86;66.16
7768;BME280;3928;42.626;23.382;2023-12-20T08:31:58;94088.22;;;6.97;66.03
7768;BME280;3928;42.626;23.382;2023-12-20T08:34:26;94084.78;;;7.02;65.63
7768;BME280;3928;42.626;23.382;2023-12-20T08:36:53;94073.78;;;6.94;65.84
7768;BME280;3928;42.626;23.382;2023-12-20T08:39:20;94066.19;;;6.85;65.57
7768;BME280;3928;42.626;23.382;2023-12-20T08:41:48;94053.50;;;6.78;65.00
7768;BME280;3928;42.626;23.382;2023-12-20T08:44:15;94064.50;;;6.83;66.22
7768;BME280;3928;42.626;23.382;2023-12-20T08:46:43;94050.94;;;6.78;66.79
7768;BME280;3928;42.626;23.382;2023-12-20T08:49:10;94068.03;;;6.65;66.87
7768;BME280;3928;42.626;23.382;2023-12-20T08:51:36;94068.91;;;6.58;66.76
7768;BME280;3928;42.626;23.382;2023-12-20T08:54:06;94073.13;;;6.60;67.23
7768;BME280;3928;42.626;23.382;2023-12-20T08:56:34;94064.66;;;6.60;67.53
7768;BME280;3928;42.626;23.382;2023-12-20T08:59:02;94064.63;;;6.63;67.93
7768;BME280;3928;42.626;23.382;2023-12-20T09:01:29;94060.38;;;6.65;68.04
7768;BME280;3928;42.626;23.382;2023-12-20T09:03:56;94050.28;;;6.47;68.81
7768;BME280;3928;42.626;23.382;2023-12-20T09:06:23;94046.00;;;6.50;69.12
7768;BME280;3928;42.626;23.382;2023-12-20T09:08:50;94038.38;;;6.45;69.06
7768;BME280;3928;42.626;23.382;2023-12-20T09:11:17;94033.28;;;6.45;69.34
7768;BME280;3928;42.626;23.382;2023-12-20T09:13:44;94020.53;;;6.49;69.11
7768;BME280;3928;42.626;23.382;2023-12-20T09:16:12;94006.94;;;6.51;69.00
7768;BME280;3928;42.626;23.382;2023-12-20T09:18:41;93996.66;;;6.59;69.29
7768;BME280;3928;42.626;23.382;2023-12-20T09:21:08;93841.09;;;5.39;69.00
7768;BME280;3928;42.626;23.382;2023-12-20T09:23:35;93992.56;;;6.39;69.43
7768;BME280;3928;42.626;23.382;2023-12-20T09:26:03;93995.09;;;6.36;70.29
7768;BME280;3928;42.626;23.382;2023-12-20T09:28:30;93984.06;;;6.40;70.16
7768;BME280;3928;42.626;23.382;2023-12-20T09:31:03;93980.56;;;6.51;69.94
7768;BME280;3928;42.626;23.382;2023-12-20T09:33:31;93960.19;;;6.54;69.87
7768;BME280;3928;42.626;23.382;2023-12-20T09:35:58;93961.91;;;6.45;69.21
7768;BME280;3928;42.626;23.382;2023-12-20T09:38:25;93952.63;;;6.40;69.86
7768;BME280;3928;42.626;23.382;2023-12-20T09:40:52;93960.16;;;6.51;70.75
7768;BME280;3928;42.626;23.382;2023-12-20T09:43:24;93942.41;;;6.43;70.85
7768;BME280;3928;42.626;23.382;2023-12-20T09:45:53;93949.09;;;6.58;70.40
7768;BME280;3928;42.626;23.382;2023-12-20T09:48:20;93945.59;;;6.69;69.74
7768;BME280;3928;42.626;23.382;2023-12-20T09:50:49;93937.84;;;6.83;70.22
7768;BME280;3928;42.626;23.382;2023-12-20T09:53:16;93942.88;;;6.92;69.97
7768;BME280;3928;42.626;23.382;2023-12-20T09:55:44;93951.19;;;7.10;69.76
7768;BME280;3928;42.626;23.382;2023-12-20T09:58:11;93923.91;;;7.18;69.51
7768;BME280;3928;42.626;23.382;2023-12-20T10:00:38;93930.38;;;7.52;68.82
7768;BME280;3928;42.626;23.382;2023-12-20T10:03:06;93927.59;;;7.69;67.78
7768;BME280;3928;42.626;23.382;2023-12-20T10:05:34;93919.84;;;7.77;67.18
7768;BME280;3928;42.626;23.382;2023-12-20T10:08:02;93904.25;;;7.98;66.67
7768;BME280;3928;42.626;23.382;2023-12-20T10:10:29;93906.69;;;8.09;66.32
7768;BME280;3928;42.626;23.382;2023-12-20T10:13:04;93908.19;;;8.22;65.75
7768;BME280;3928;42.626;23.382;2023-12-20T10:15:32;93906.31;;;8.36;64.75
7768;BME280;3928;42.626;23.382;2023-12-20T10:17:59;93899.31;;;8.47;65.62
7768;BME280;3928;42.626;23.382;2023-12-20T10:20:27;93892.25;;;8.63;63.74
7768;BME280;3928;42.626;23.382;2023-12-20T10:22:54;93869.16;;;8.69;63.73
7768;BME280;3928;42.626;23.382;2023-12-20T10:25:23;93882.25;;;9.02;63.68
7768;BME280;3928;42.626;23.382;2023-12-20T10:28:08;93879.50;;;9.13;62.15
7768;BME280;3928;42.626;23.382;2023-12-20T10:30:36;93857.38;;;9.08;61.32
7768;BME280;3928;42.626;23.382;2023-12-20T10:33:03;93882.53;;;9.31;61.55
7768;BME280;3928;42.626;23.382;2023-12-20T10:35:31;93877.22;;;9.42;60.89
7768;BME280;3928;42.626;23.382;2023-12-20T10:38:03;93866.78;;;9.53;62.09
7768;BME280;3928;42.626;23.382;2023-12-20T10:40:34;93847.69;;;9.67;60.38
7768;BME280;3928;42.626;23.382;2023-12-20T10:43:03;93854.00;;;9.91;59.24
7768;BME280;3928;42.626;23.382;2023-12-20T10:45:30;93853.69;;;10.07;59.67
7768;BME280;3928;42.626;23.382;2023-12-20T10:47:58;93841.00;;;10.01;58.84
7768;BME280;3928;42.626;23.382;2023-12-20T10:50:27;93843.09;;;10.23;58.92
7768;BME280;3928;42.626;23.382;2023-12-20T10:52:55;93838.19;;;10.50;58.54
7768;BME280;3928;42.626;23.382;2023-12-20T10:55:22;93851.44;;;10.69;56.08
7768;BME280;3928;42.626;23.382;2023-12-20T10:57:51;93836.22;;;10.95;57.58
7768;BME280;3928;42.626;23.382;2023-12-20T11:00:18;93838.78;;;11.28;55.70
7768;BME280;3928;42.626;23.382;2023-12-20T11:02:45;93827.78;;;11.54;53.43
7768;BME280;3928;42.626;23.382;2023-12-20T11:05:22;93817.75;;;11.76;52.35
7768;BME280;3928;42.626;23.382;2023-12-20T11:07:57;93817.69;;;12.08;52.63
7768;BME280;3928;42.626;23.382;2023-12-20T11:10:31;93818.16;;;12.47;51.25
7768;BME280;3928;42.626;23.382;2023-12-20T11:13:06;93800.56;;;12.86;49.70
7768;BME280;3928;42.626;23.382;2023-12-20T11:15:35;93792.19;;;13.31;49.35
7768;BME280;3928;42.626;23.382;2023-12-20T11:18:04;93796.03;;;13.68;48.19
7768;BME280;3928;42.626;23.382;2023-12-20T11:20:39;93795.97;;;14.15;46.42
7768;BME280;3928;42.626;23.382;2023-12-20T11:23:08;93791.41;;;14.43;45.47
7768;BME280;3928;42.626;23.382;2023-12-20T11:25:47;93773.69;;;14.57;44.78
7768;BME280;3928;42.626;23.382;2023-12-20T11:28:15;93783.25;;;14.96;43.70
7768;BME280;3928;42.626;23.382;2023-12-20T11:30:48;93770.97;;;15.21;43.51
7768;BME280;3928;42.626;23.382;2023-12-20T11:33:15;93762.22;;;15.44;42.39
7768;BME280;3928;42.626;23.382;2023-12-20T11:35:42;93757.59;;;15.32;41.52
7768;BME280;3928;42.626;23.382;2023-12-20T11:38:09;93754.78;;;15.18;41.92
7768;BME280;3928;42.626;23.382;2023-12-20T11:40:37;93553.66;;;13.68;42.29
7768;BME280;3928;42.626;23.382;2023-12-20T11:43:04;93740.00;;;14.81;42.63
7768;BME280;3928;42.626;23.382;2023-12-20T11:45:33;93738.28;;;14.80;42.83
7768;BME280;3928;42.626;23.382;2023-12-20T11:48:02;93737.97;;;14.67;43.63
7768;BME280;3928;42.626;23.382;2023-12-20T11:50:29;93737.81;;;14.92;43.60
7768;BME280;3928;42.626;23.382;2023-12-20T11:52:57;93729.31;;;15.29;43.03
7768;BME280;3928;42.626;23.382;2023-12-20T11:55:24;93724.81;;;15.72;42.40
7768;BME280;3928;42.626;23.382;2023-12-20T11:57:51;93703.38;;;16.06;41.44
7768;BME280;3928;42.626;23.382;2023-12-20T12:00:18;93703.59;;;16.37;40.20
7768;BME280;3928;42.626;23.382;2023-12-20T12:02:57;93704.41;;;16.74;39.97
7768;BME280;3928;42.626;23.382;2023-12-20T12:05:24;93703.44;;;17.10;39.01
7768;BME280;3928;42.626;23.382;2023-12-20T12:07:51;93685.63;;;17.37;38.46
7768;BME280;3928;42.626;23.382;2023-12-20T12:10:18;93686.69;;;17.66;38.23
7768;BME280;3928;42.626;23.382;2023-12-20T12:12:45;93670.13;;;17.84;37.53
7768;BME280;3928;42.626;23.382;2023-12-20T12:15:12;93678.00;;;18.14;36.66
7768;BME280;3928;42.626;23.382;2023-12-20T12:17:39;93677.53;;;18.37;36.28
7768;BME280;3928;42.626;23.382;2023-12-20T12:20:08;93670.72;;;18.51;35.54
7768;BME280;3928;42.626;23.382;2023-12-20T12:22:35;93667.34;;;18.64;35.50
7768;BME280;3928;42.626;23.382;2023-12-20T12:25:09;93674.00;;;18.84;35.19
7768;BME280;3928;42.626;23.382;2023-12-20T12:27:39;93661.84;;;18.99;34.46
7768;BME280;3928;42.626;23.382;2023-12-20T12:30:09;93656.09;;;19.08;34.52
7768;BME280;3928;42.626;23.382;2023-12-20T12:32:38;93650.50;;;19.28;34.12
7768;BME280;3928;42.626;23.382;2023-12-20T12:35:07;93648.47;;;19.62;33.58
7768;BME280;3928;42.626;23.382;2023-12-20T12:37:37;93648.06;;;19.82;33.29
7768;BME280;3928;42.626;23.382;2023-12-20T12:40:05;93640.03;;;20.00;33.05
7768;BME280;3928;42.626;23.382;2023-12-20T12:42:32;93638.72;;;20.07;32.70
7768;BME280;3928;42.626;23.382;2023-12-20T12:44:59;93627.34;;;20.08;32.80
7768;BME280;3928;42.626;23.382;2023-12-20T12:47:26;93643.38;;;20.02;32.34
7768;BME280;3928;42.626;23.382;2023-12-20T12:49:53;93634.91;;;19.71;32.83
7768;BME280;3928;42.626;23.382;2023-12-20T12:52:22;93626.81;;;19.47;33.40
7768;BME280;3928;42.626;23.382;2023-12-20T12:54:49;93641.41;;;19.21;33.51
7768;BME280;3928;42.626;23.382;2023-12-20T12:57:16;93620.59;;;18.93;34.23
7768;BME280;3928;42.626;23.382;2023-12-20T12:59:43;93644.34;;;18.73;34.21
7768;BME280;3928;42.626;23.382;2023-12-20T13:02:11;93645.44;;;18.38;34.72
7768;BME280;3928;42.626;23.382;2023-12-20T13:04:38;93646.50;;;18.04;35.54
7768;BME280;3928;42.626;23.382;2023-12-20T13:07:06;93637.22;;;17.69;36.24
7768;BME280;3928;42.626;23.382;2023-12-20T13:09:34;93646.13;;;17.32;36.54
7768;BME280;3928;42.626;23.382;2023-12-20T13:12:01;93651.63;;;16.92;37.30
7768;BME280;3928;42.626;23.382;2023-12-20T13:14:29;93635.34;;;16.73;37.74
7768;BME280;3928;42.626;23.382;2023-12-20T13:16:56;93628.72;;;16.50;37.96
7768;BME280;3928;42.626;23.382;2023-12-20T13:19:23;93634.44;;;16.40;38.25
7768;BME280;3928;42.626;23.382;2023-12-20T13:21:50;93629.31;;;16.21;38.22